createdAt,value
2019-04-03T00:01:58.873Z,92.30
2019-04-03T00:04:30.311Z,92.40
2019-04-03T00:07:01.639Z,92.60
2019-04-03T00:09:32.938Z,92.70
2019-04-03T00:12:04.401Z,92.90
2019-04-03T00:14:35.756Z,93.30
2019-04-03T00:17:07.400Z,92.90
2019-04-03T00:19:38.880Z,92.20
2019-04-03T00:22:10.840Z,92.30
2019-04-03T00:24:42.182Z,91.90
2019-04-03T00:27:13.669Z,92.10
2019-04-03T00:29:45.113Z,92.10
2019-04-03T00:32:16.923Z,92.80
2019-04-03T00:34:48.263Z,93.00
2019-04-03T00:37:21.520Z,93.80
2019-04-03T00:39:54.500Z,93.60
2019-04-03T00:42:26.107Z,93.70
2019-04-03T00:44:57.430Z,93.40
2019-04-03T00:47:28.708Z,93.50
2019-04-03T00:50:00.992Z,93.30
2019-04-03T00:52:32.315Z,93.30
2019-04-03T00:55:03.663Z,93.80
2019-04-03T00:57:35.591Z,93.70
2019-04-03T01:00:12.797Z,92.60
2019-04-03T01:02:45.723Z,92.70
2019-04-03T01:05:17.449Z,92.50
2019-04-03T01:07:48.793Z,92.50
2019-04-03T01:10:20.727Z,92.40
2019-04-03T01:12:54.032Z,92.20
2019-04-03T01:15:25.699Z,92.10
2019-04-03T01:17:56.926Z,91.30
2019-04-03T01:20:28.446Z,92.00
2019-04-03T01:22:59.651Z,91.80
2019-04-03T01:25:31.107Z,92.30
2019-04-03T01:28:02.536Z,92.90
2019-04-03T01:30:34.787Z,92.10
2019-04-03T01:33:06.514Z,92.50
2019-04-03T01:35:38.449Z,93.00
2019-04-03T01:38:10.162Z,92.60
2019-04-03T01:40:42.271Z,92.50
2019-04-03T01:43:14.311Z,92.50
2019-04-03T01:45:45.632Z,92.50
2019-04-03T01:48:17.028Z,93.10
2019-04-03T01:50:49.594Z,93.90
2019-04-03T01:53:21.591Z,93.20
2019-04-03T01:55:54.608Z,92.80
2019-04-03T01:58:25.954Z,92.80
2019-04-03T02:00:57.286Z,93.10
2019-04-03T02:03:29.333Z,93.50
2019-04-03T02:06:01.468Z,93.60
2019-04-03T02:08:33.773Z,92.90
2019-04-03T02:11:05.070Z,92.80
2019-04-03T02:13:36.276Z,93.30
2019-04-03T02:16:07.689Z,92.50
2019-04-03T02:18:39.134Z,92.80
2019-04-03T02:21:10.555Z,92.70
2019-04-03T02:23:42.582Z,92.30
2019-04-03T02:26:13.886Z,92.10
2019-04-03T02:28:46.323Z,92.30
2019-04-03T02:31:19.997Z,91.40
2019-04-03T02:33:52.633Z,92.40
2019-04-03T02:36:23.945Z,92.90
2019-04-03T02:38:56.197Z,93.00
2019-04-03T02:41:28.151Z,93.20
2019-04-03T02:44:00.105Z,93.40
2019-04-03T02:46:31.325Z,93.80
2019-04-03T02:49:02.644Z,94.70
2019-04-03T02:51:34.045Z,95.70
2019-04-03T02:54:09.105Z,96.30
2019-04-03T02:56:44.548Z,97.80
2019-04-03T02:59:15.163Z,98.70
2019-04-03T03:01:47.064Z,99.20
2019-04-03T03:04:20.942Z,99.30
2019-04-03T03:06:52.258Z,99.90
2019-04-03T03:09:24.180Z,99.70
2019-04-03T03:11:56.975Z,99.70
2019-04-03T03:14:29.764Z,99.70
2019-04-03T03:17:01.323Z,99.80
2019-04-03T03:19:33.796Z,99.50
2019-04-03T03:22:05.286Z,99.60
2019-04-03T03:24:36.719Z,99.90
2019-04-03T03:27:09.620Z,99.90
2019-04-03T03:29:44.006Z,98.80
2019-04-03T03:32:21.352Z,98.20
2019-04-03T03:34:56.892Z,99.40
2019-04-03T03:37:25.929Z,99.80
2019-04-03T03:40:00.710Z,98.40
2019-04-03T03:42:33.071Z,98.00
2019-04-03T03:45:06.465Z,97.10
2019-04-03T03:47:38.179Z,95.20
2019-04-03T03:50:09.950Z,94.50
2019-04-03T03:52:42.947Z,94.60
2019-04-03T03:55:14.743Z,94.50
2019-04-03T03:57:46.252Z,93.70
2019-04-03T04:00:17.830Z,93.70
2019-04-03T04:02:49.136Z,94.10
2019-04-03T04:05:22.841Z,94.80
2019-04-03T04:07:55.154Z,94.00
2019-04-03T04:10:29.326Z,93.90
2019-04-03T04:13:02.544Z,93.90
2019-04-03T04:15:36.558Z,93.70
2019-04-03T04:18:13.598Z,94.90
2019-04-03T04:20:43.467Z,94.20
2019-04-03T04:23:14.963Z,94.30
2019-04-03T04:25:46.860Z,94.20
2019-04-03T04:28:19.307Z,94.70
2019-04-03T04:30:52.378Z,94.90
2019-04-03T04:33:24.109Z,96.00
2019-04-03T04:35:55.529Z,97.20
2019-04-03T04:38:27.207Z,97.80
2019-04-03T04:41:01.366Z,98.70
2019-04-03T04:43:31.472Z,98.00
2019-04-03T04:46:02.954Z,97.10
2019-04-03T04:48:34.459Z,97.30
2019-04-03T04:51:05.779Z,97.00
2019-04-03T04:53:37.084Z,97.00
2019-04-03T04:56:08.728Z,97.20
2019-04-03T04:58:43.020Z,96.30
2019-04-03T05:01:17.017Z,99.90
2019-04-03T05:03:48.508Z,99.90
2019-04-03T05:06:20.444Z,97.90
2019-04-03T05:08:54.009Z,99.90
2019-04-03T05:11:28.684Z,97.90
2019-04-03T05:14:00.152Z,91.80
2019-04-03T05:16:32.270Z,85.80
2019-04-03T05:19:10.029Z,84.60
2019-04-03T05:21:36.927Z,83.00
2019-04-03T05:24:13.111Z,82.80
2019-04-03T05:26:41.159Z,84.30
2019-04-03T05:29:12.811Z,85.60
2019-04-03T05:31:45.031Z,86.40
2019-04-03T05:34:16.329Z,85.70
2019-04-03T05:36:48.557Z,85.30
2019-04-03T05:39:22.070Z,85.60
2019-04-03T05:41:53.825Z,87.60
2019-04-03T05:44:26.697Z,88.00
2019-04-03T05:46:59.645Z,87.70
2019-04-03T05:49:31.364Z,86.50
2019-04-03T05:52:04.095Z,86.50
2019-04-03T05:54:38.784Z,86.20
2019-04-03T05:57:09.033Z,86.90
2019-04-03T05:59:43.512Z,87.00
2019-04-03T06:02:19.867Z,87.50
2019-04-03T06:04:48.031Z,86.80
2019-04-03T06:07:19.983Z,87.50
2019-04-03T06:09:53.111Z,87.80
2019-04-03T06:12:25.254Z,88.70
2019-04-03T06:14:57.490Z,89.50
2019-04-03T06:17:29.949Z,88.90
2019-04-03T06:20:01.241Z,87.90
2019-04-03T06:22:32.561Z,90.20
2019-04-03T06:25:05.797Z,90.60
2019-04-03T06:27:37.109Z,90.30
2019-04-03T06:30:11.862Z,90.10
2019-04-03T06:32:43.517Z,90.50
2019-04-03T06:35:15.096Z,90.60
2019-04-03T06:37:46.435Z,90.40
2019-04-03T06:40:17.782Z,89.70
2019-04-03T06:42:49.052Z,89.80
2019-04-03T06:45:20.283Z,90.00
2019-04-03T06:47:51.592Z,89.70
2019-04-03T06:50:22.833Z,89.40
2019-04-03T06:52:54.213Z,88.50
2019-04-03T06:55:25.680Z,90.10
2019-04-03T06:57:57.380Z,89.40
2019-04-03T07:00:28.875Z,89.20
2019-04-03T07:03:01.520Z,90.10
2019-04-03T07:05:33.544Z,88.90
2019-04-03T07:08:05.985Z,90.40
2019-04-03T07:10:40.154Z,91.00
2019-04-03T07:13:10.914Z,90.00
2019-04-03T07:15:42.461Z,89.70
2019-04-03T07:18:13.831Z,91.10
2019-04-03T07:20:45.433Z,91.50
2019-04-03T07:23:17.809Z,91.20
2019-04-03T07:25:51.053Z,91.20
2019-04-03T07:28:22.683Z,91.00
2019-04-03T07:30:54.848Z,91.20
2019-04-03T07:33:28.698Z,91.00
2019-04-03T07:36:00.330Z,91.30
2019-04-03T07:38:32.706Z,90.40
2019-04-03T07:41:06.176Z,91.10
2019-04-03T07:43:38.614Z,92.00
2019-04-03T07:46:09.895Z,92.30
2019-04-03T07:48:41.657Z,91.30
2019-04-03T07:51:13.734Z,91.60
2019-04-03T07:53:45.833Z,91.30
2019-04-03T07:56:17.253Z,92.30
2019-04-03T07:58:48.476Z,91.00
2019-04-03T08:01:19.835Z,92.40
2019-04-03T08:03:52.340Z,92.50
2019-04-03T08:06:24.470Z,91.60
2019-04-03T08:09:06.509Z,91.90
2019-04-03T08:11:32.411Z,92.00
2019-04-03T08:14:02.817Z,92.90
2019-04-03T08:16:34.067Z,92.20
2019-04-03T08:19:08.080Z,92.70
2019-04-03T08:21:39.884Z,91.90
2019-04-03T08:24:11.962Z,91.70
2019-04-03T08:26:44.879Z,92.50
2019-04-03T08:29:16.663Z,92.90
2019-04-03T08:31:49.068Z,92.70
2019-04-03T08:34:21.675Z,92.50
2019-04-03T08:36:53.189Z,93.30
2019-04-03T08:39:24.636Z,93.20
2019-04-03T08:41:56.994Z,93.60
2019-04-03T08:44:28.841Z,93.00
2019-04-03T08:47:00.991Z,93.50
2019-04-03T08:49:32.204Z,93.20
2019-04-03T08:52:05.645Z,92.50
2019-04-03T08:54:37.992Z,92.30
2019-04-03T08:57:10.289Z,92.50
2019-04-03T08:59:42.842Z,91.20
2019-04-03T09:02:14.953Z,90.80
2019-04-03T09:04:48.075Z,91.60
2019-04-03T09:07:20.964Z,91.90
2019-04-03T09:09:53.515Z,92.40
2019-04-03T09:12:26.757Z,91.50
2019-04-03T09:14:59.122Z,91.90
2019-04-03T09:17:33.465Z,92.50
2019-04-03T09:20:04.770Z,92.30
2019-04-03T09:22:36.822Z,91.50
2019-04-03T09:25:08.671Z,92.00
2019-04-03T09:27:40.741Z,92.30
2019-04-03T09:30:16.130Z,92.00
2019-04-03T09:32:47.769Z,93.00
2019-04-03T09:35:19.503Z,92.40
2019-04-03T09:37:52.247Z,92.80
2019-04-03T09:40:23.708Z,92.10
2019-04-03T09:42:56.845Z,92.40
2019-04-03T09:45:28.619Z,91.60
2019-04-03T09:48:01.462Z,89.80
2019-04-03T09:50:32.892Z,90.30
2019-04-03T09:53:04.710Z,89.90
2019-04-03T09:55:37.622Z,89.90
2019-04-03T09:58:09.397Z,87.60
2019-04-03T10:00:42.313Z,87.90
2019-04-03T10:03:16.633Z,88.50
2019-04-03T10:05:48.679Z,91.80
2019-04-03T10:08:20.717Z,92.60
2019-04-03T10:10:52.233Z,93.90
2019-04-03T10:13:25.894Z,94.50
2019-04-03T10:15:57.346Z,92.10
2019-04-03T10:18:29.409Z,94.70
2019-04-03T10:21:01.254Z,92.90
2019-04-03T10:23:32.498Z,92.70
2019-04-03T10:26:07.389Z,94.30
2019-04-03T10:28:37.747Z,94.80
2019-04-03T10:31:09.865Z,94.00
2019-04-03T10:33:43.408Z,94.10
2019-04-03T10:36:17.500Z,94.40
2019-04-03T10:38:49.097Z,93.10
2019-04-03T10:41:20.829Z,94.20
2019-04-03T10:43:52.283Z,93.90
2019-04-03T10:46:24.198Z,94.80
2019-04-03T10:48:56.142Z,94.80
2019-04-03T10:51:31.208Z,94.50
2019-04-03T10:54:05.698Z,94.30
2019-04-03T10:56:37.587Z,93.00
2019-04-03T10:59:13.014Z,93.20
2019-04-03T11:01:43.549Z,93.80
2019-04-03T11:04:14.876Z,94.60
2019-04-03T11:06:47.282Z,94.70
2019-04-03T11:09:19.021Z,94.40
2019-04-03T11:11:50.385Z,94.20
2019-04-03T11:14:22.209Z,93.60
2019-04-03T11:16:54.268Z,93.30
2019-04-03T11:19:25.912Z,93.00
2019-04-03T11:21:57.685Z,92.50
2019-04-03T11:24:29.339Z,92.00
2019-04-03T11:27:00.756Z,91.10
2019-04-03T11:29:33.079Z,91.40
2019-04-03T11:32:05.647Z,90.80
2019-04-03T11:34:39.098Z,90.40
2019-04-03T11:37:10.772Z,91.40
2019-04-03T11:39:44.087Z,91.90
2019-04-03T11:42:23.940Z,91.50
2019-04-03T11:44:49.417Z,91.40
2019-04-03T11:47:21.384Z,91.00
2019-04-03T11:49:53.271Z,91.00
2019-04-03T11:52:25.409Z,90.60
2019-04-03T11:54:57.253Z,90.70
2019-04-03T11:57:28.656Z,90.00
2019-04-03T12:00:00.204Z,90.40
2019-04-03T12:02:31.441Z,91.40
2019-04-03T12:05:04.448Z,90.10
2019-04-03T12:07:36.242Z,89.10
2019-04-03T12:10:09.600Z,90.30
2019-04-03T12:12:43.046Z,91.80
2019-04-03T12:15:19.779Z,91.10
2019-04-03T12:17:49.819Z,90.30
2019-04-03T12:20:21.554Z,90.10
2019-04-03T12:22:55.179Z,90.00
2019-04-03T12:25:29.033Z,90.00
2019-04-03T12:28:00.570Z,90.30
2019-04-03T12:30:32.564Z,88.00
2019-04-03T12:33:03.920Z,89.20
2019-04-03T12:35:35.293Z,90.80
2019-04-03T12:38:07.318Z,91.60
2019-04-03T12:40:38.936Z,91.80
2019-04-03T12:43:11.233Z,91.00
2019-04-03T12:45:44.699Z,92.20
2019-04-03T12:48:17.905Z,90.90
2019-04-03T12:50:49.457Z,91.10
2019-04-03T12:53:21.361Z,92.80
2019-04-03T12:55:55.758Z,92.60
2019-04-03T12:58:27.216Z,91.60
2019-04-03T13:00:59.104Z,92.10
2019-04-03T13:03:30.869Z,91.60
2019-04-03T13:06:02.876Z,92.00
2019-04-03T13:08:36.357Z,92.40
2019-04-03T13:11:09.894Z,92.00
2019-04-03T13:13:41.611Z,92.30
2019-04-03T13:16:12.927Z,92.00
2019-04-03T13:18:44.431Z,91.70
2019-04-03T13:21:15.816Z,91.50
2019-04-03T13:23:47.894Z,91.60
2019-04-03T13:26:20.230Z,91.20
2019-04-03T13:28:51.547Z,91.50
2019-04-03T13:31:24.255Z,92.20
2019-04-03T13:33:55.688Z,92.00
2019-04-03T13:36:26.998Z,92.50
2019-04-03T13:39:01.303Z,93.10
2019-04-03T13:41:34.926Z,93.70
2019-04-03T13:44:06.879Z,91.80
2019-04-03T13:46:38.875Z,92.40
2019-04-03T13:49:10.395Z,91.10
2019-04-03T13:51:41.890Z,90.00
2019-04-03T13:54:14.302Z,90.20
2019-04-03T13:56:46.209Z,92.00
2019-04-03T13:59:18.212Z,91.80
2019-04-03T14:01:50.214Z,92.00
2019-04-03T14:04:22.854Z,91.60
2019-04-03T14:06:55.285Z,91.50
2019-04-03T14:09:28.748Z,90.80
2019-04-03T14:12:00.989Z,91.30
2019-04-03T14:14:33.078Z,91.70
2019-04-03T14:17:06.077Z,92.00
2019-04-03T14:19:44.350Z,93.30
2019-04-03T14:22:11.393Z,93.10
2019-04-03T14:24:48.837Z,91.80
2019-04-03T14:27:23.594Z,91.70
2019-04-03T14:29:50.132Z,93.10
2019-04-03T14:32:23.158Z,92.00
2019-04-03T14:35:05.331Z,91.70
2019-04-03T14:37:28.266Z,92.60
2019-04-03T14:40:01.477Z,94.00
2019-04-03T14:42:33.283Z,93.60
2019-04-03T14:45:05.060Z,93.40
2019-04-03T14:47:37.544Z,93.60
2019-04-03T14:50:12.372Z,94.00
2019-04-03T14:52:44.138Z,93.40
2019-04-03T14:55:20.692Z,94.10
2019-04-03T14:57:49.615Z,94.00
2019-04-03T15:00:27.442Z,94.60
2019-04-03T15:02:56.772Z,94.20
2019-04-03T15:05:27.245Z,94.00
2019-04-03T15:07:58.684Z,94.60
2019-04-03T15:10:31.569Z,95.00
2019-04-03T15:13:03.383Z,94.70
2019-04-03T15:15:35.655Z,93.90
2019-04-03T15:18:09.192Z,94.40
2019-04-03T15:20:40.250Z,94.60
2019-04-03T15:23:12.334Z,94.40
2019-04-03T15:25:43.842Z,94.40
2019-04-03T15:28:16.514Z,94.90
2019-04-03T15:30:47.947Z,94.20
2019-04-03T15:33:19.577Z,95.00
2019-04-03T15:35:50.911Z,95.70
2019-04-03T15:38:23.206Z,95.50
2019-04-03T15:40:57.192Z,94.80
2019-04-03T15:43:28.261Z,95.40
2019-04-03T15:45:59.630Z,95.40
2019-04-03T15:48:31.190Z,95.30
2019-04-03T15:51:06.661Z,95.50
2019-04-03T15:53:38.508Z,95.10
2019-04-03T15:56:13.001Z,95.40
2019-04-03T15:58:43.724Z,95.30
2019-04-03T16:01:15.139Z,95.70
2019-04-03T16:03:48.892Z,95.50
2019-04-03T16:06:20.146Z,95.70
2019-04-03T16:08:53.613Z,95.90
2019-04-03T16:11:25.105Z,96.80
2019-04-03T16:13:57.042Z,97.50
2019-04-03T16:16:29.527Z,97.50
2019-04-03T16:19:00.932Z,95.50
2019-04-03T16:21:32.544Z,95.30
2019-04-03T16:24:04.283Z,95.80
2019-04-03T16:26:35.857Z,96.40
2019-04-03T16:29:08.753Z,96.50
2019-04-03T16:31:41.713Z,95.90
2019-04-03T16:34:13.729Z,95.30
2019-04-03T16:36:47.867Z,94.50
2019-04-03T16:39:19.248Z,94.70
2019-04-03T16:41:50.895Z,95.00
2019-04-03T16:44:25.653Z,95.00
2019-04-03T16:46:56.397Z,95.10
2019-04-03T16:49:28.675Z,95.00
2019-04-03T16:52:03.411Z,95.50
2019-04-03T16:54:36.327Z,95.80
2019-04-03T16:57:08.159Z,95.80
2019-04-03T16:59:41.521Z,95.70
2019-04-03T17:02:13.199Z,96.10
2019-04-03T17:04:45.881Z,96.50
2019-04-03T17:07:17.986Z,96.80
2019-04-03T17:09:53.947Z,96.60
2019-04-03T17:12:26.594Z,96.90
2019-04-03T17:14:59.516Z,96.80
2019-04-03T17:17:32.116Z,95.80
2019-04-03T17:20:03.653Z,94.90
2019-04-03T17:22:37.208Z,94.90
2019-04-03T17:25:09.171Z,94.40
2019-04-03T17:27:41.482Z,93.20
2019-04-03T17:30:18.262Z,93.10
2019-04-03T17:32:50.827Z,93.40
2019-04-03T17:35:24.060Z,93.70
2019-04-03T17:38:00.477Z,93.70
2019-04-03T17:40:30.436Z,94.20
2019-04-03T17:43:03.319Z,94.70
2019-04-03T17:45:36.395Z,95.20
2019-04-03T17:48:08.153Z,95.70
2019-04-03T17:50:40.078Z,95.70
2019-04-03T17:53:11.805Z,95.80
2019-04-03T17:55:45.392Z,95.80
2019-04-03T17:58:17.918Z,96.10
2019-04-03T18:00:52.052Z,96.10
2019-04-03T18:03:24.103Z,95.40
2019-04-03T18:05:57.456Z,95.10
2019-04-03T18:08:29.422Z,94.90
2019-04-03T18:11:01.872Z,94.90
2019-04-03T18:13:33.355Z,94.40
2019-04-03T18:16:05.895Z,94.00
2019-04-03T18:18:37.779Z,93.40
2019-04-03T18:21:09.809Z,93.40
2019-04-03T18:23:45.047Z,93.70
2019-04-03T18:26:17.389Z,93.90
2019-04-03T18:28:52.685Z,94.70
2019-04-03T18:31:25.789Z,95.30
2019-04-03T18:33:57.289Z,96.10
2019-04-03T18:36:31.275Z,97.90
2019-04-03T18:39:11.885Z,99.30
2019-04-03T18:41:49.663Z,99.80
2019-04-03T18:44:26.045Z,99.90
2019-04-03T18:46:57.717Z,99.90
2019-04-03T18:49:30.623Z,99.90
2019-04-03T18:52:07.554Z,99.90
2019-04-03T18:54:42.431Z,99.90
2019-04-03T18:57:17.127Z,99.90
2019-04-03T18:59:50.856Z,99.90
2019-04-03T19:02:25.169Z,99.90
2019-04-03T19:05:03.787Z,99.90
2019-04-03T19:07:39.107Z,99.90
2019-04-03T19:10:18.377Z,99.90
2019-04-03T19:12:52.180Z,99.90
2019-04-03T19:15:28.063Z,99.90
2019-04-03T19:18:17.914Z,99.90
2019-04-03T19:20:42.510Z,99.90
2019-04-03T19:23:19.373Z,99.90
2019-04-03T19:25:51.907Z,99.90
2019-04-03T19:28:23.502Z,99.90
2019-04-03T19:30:55.630Z,99.90
2019-04-03T19:33:28.360Z,99.90
2019-04-03T19:36:03.067Z,99.90
2019-04-03T19:38:37.186Z,99.90
2019-04-03T19:41:12.631Z,99.90
2019-04-03T19:43:48.968Z,99.90
2019-04-03T19:46:22.765Z,99.90
2019-04-03T19:49:00.030Z,99.90
2019-04-03T19:51:37.476Z,99.90
2019-04-03T19:54:12.313Z,99.90
2019-04-03T19:56:47.083Z,99.90
2019-04-03T19:59:19.232Z,99.90
2019-04-03T20:01:56.535Z,99.90
2019-04-03T20:04:30.262Z,99.90
2019-04-03T20:07:09.949Z,99.90
2019-04-03T20:09:41.795Z,99.90
2019-04-03T20:12:14.853Z,99.90
2019-04-03T20:14:57.611Z,99.90
2019-04-03T20:17:22.776Z,99.90
2019-04-03T20:19:57.880Z,99.90
2019-04-03T20:22:30.223Z,99.90
2019-04-03T20:25:03.007Z,99.90
2019-04-03T20:27:36.509Z,99.90
2019-04-03T20:30:10.059Z,99.90
2019-04-03T20:32:41.541Z,99.90
2019-04-03T20:35:14.261Z,99.90
2019-04-03T20:37:46.417Z,99.90
2019-04-03T20:40:18.140Z,99.90
2019-04-03T20:42:49.665Z,99.90
2019-04-03T20:45:22.136Z,99.90
2019-04-03T20:47:57.201Z,99.90
2019-04-03T20:50:27.359Z,99.90
2019-04-03T20:52:58.920Z,99.90
2019-04-03T20:55:32.930Z,99.90
2019-04-03T20:58:06.546Z,99.90
2019-04-03T21:00:38.237Z,99.90
2019-04-03T21:03:12.583Z,99.90
2019-04-03T21:05:44.387Z,99.90
2019-04-03T21:08:17.988Z,99.90
2019-04-03T21:10:51.059Z,99.90
2019-04-03T21:13:23.713Z,99.90
2019-04-03T21:15:55.206Z,99.90
2019-04-03T21:18:26.584Z,99.90
2019-04-03T21:21:01.037Z,99.90
2019-04-03T21:23:33.283Z,99.90
2019-04-03T21:26:07.260Z,99.90
2019-04-03T21:28:40.875Z,99.90
2019-04-03T21:31:11.713Z,99.90
2019-04-03T21:33:45.035Z,99.90
2019-04-03T21:36:18.761Z,99.90
2019-04-03T21:38:50.117Z,99.90
2019-04-03T21:41:22.179Z,99.90
2019-04-03T21:43:55.496Z,99.90
2019-04-03T21:46:28.111Z,99.90
2019-04-03T21:49:02.035Z,99.90
2019-04-03T21:51:36.165Z,99.90
2019-04-03T21:54:08.489Z,99.90
2019-04-03T21:56:40.978Z,99.90
2019-04-03T21:59:12.452Z,99.90
2019-04-03T22:01:45.358Z,99.90
2019-04-03T22:04:17.278Z,99.90
2019-04-03T22:06:48.889Z,99.90
2019-04-03T22:09:20.208Z,99.90
2019-04-03T22:11:52.641Z,99.90
2019-04-03T22:14:26.170Z,99.90
2019-04-03T22:16:57.450Z,99.90
2019-04-03T22:19:28.808Z,99.90
2019-04-03T22:22:01.020Z,99.90
2019-04-03T22:24:33.647Z,99.90
2019-04-03T22:27:04.980Z,99.90
2019-04-03T22:29:36.267Z,99.90
2019-04-03T22:32:09.154Z,99.90
2019-04-03T22:34:40.666Z,99.90
2019-04-03T22:37:12.156Z,99.90
2019-04-03T22:39:43.470Z,99.90
2019-04-03T22:42:15.506Z,99.90
2019-04-03T22:44:48.298Z,99.90
2019-04-03T22:47:19.877Z,99.90
2019-04-03T22:49:51.150Z,99.90
2019-04-03T22:52:22.618Z,99.90
2019-04-03T22:54:55.003Z,99.90
2019-04-03T22:57:26.302Z,99.90
2019-04-03T22:59:57.583Z,99.90
2019-04-03T23:02:29.874Z,99.90
2019-04-03T23:05:02.187Z,99.90
2019-04-03T23:07:33.509Z,99.90
2019-04-03T23:10:05.425Z,99.90
2019-04-03T23:12:36.716Z,99.90
2019-04-03T23:15:09.434Z,99.90
2019-04-03T23:17:42.924Z,99.90
2019-04-03T23:20:15.339Z,99.90
2019-04-03T23:22:46.563Z,99.90
2019-04-03T23:25:19.097Z,99.90
2019-04-03T23:27:51.044Z,99.90
2019-04-03T23:30:23.814Z,99.90
2019-04-03T23:32:56.124Z,99.90
2019-04-03T23:35:27.830Z,99.90
2019-04-03T23:37:59.464Z,99.90
2019-04-03T23:40:31.289Z,99.90
2019-04-03T23:43:03.206Z,99.90
2019-04-03T23:45:35.507Z,99.90
2019-04-03T23:48:08.767Z,99.90
2019-04-03T23:50:40.732Z,99.90
2019-04-03T23:53:12.115Z,99.90
2019-04-03T23:55:43.466Z,99.90
2019-04-03T23:58:14.732Z,99.90
